La Reine, Canada
Current Conditions -  °F | °C
As of 10:00 PM on Friday 28 Nov 2014 (Local Time) from CYUY Reporting Station
Few Clouds Few Clouds  
Wind Chill: -14°   Ceiling: Unl
Heat Index: -2°   Visibility: 15mi
Dew Point: -6°   Wind: 6mph
Humidity: 85%   Direction: 180°S
Pressure: 30.08"   Gusts: NA
Location:  48.87°N, 79.5°W
Report Text: CYUY 290300Z 18005KT 15SM FEW040 M19/M21 A3008 RMK SC2 SLP219
Loading
Personal Weather Stations






























Interactive Weather Map New forecast layout! Learn more

10-Day Weather Forecast

Advertisements
Track Severe Weather on mobile